Tiempo atmosférico en la estación meteorológica de Fuente De Cantos, Badajoz (602 m.)



Fecha
DESCASC
Temp. máxima en grados centígrados (hora)
DESCASC
Temp. mínima en grados centígrados (hora)
DESCASC
Temp. media en grados centígrados
DESCASC
Racha de viento máxima en m/sg (hora)
DESCASC
Velocidad máxima media en intervalos de 10 minutos(hora)
DESCASC
Precipitaciones diarias en mm
DESCASC
Precipitaciones de 00:00 a 06:00 en mm
DESCASC
Precipitaciones de 06:00 a 12:00 en mm
DESCASC
Precipitaciones de 12:00 a 18:00 en mm
DESCASC
Precipitaciones de 18:00 a 24:00 en mm
DESCASC
26-08-2019 29 (15:10) 17.4 (00:00) 23.2 13.61 (16:20) 10.28 (16:10) 2 0 0 2 0
13-09-2019 23.8 (17:50) 15.8 (00:00) 19.8 16.67 (14:00) 13.06 (14:00) 4.4 0 0 0.2 4.2
05-09-2019 34.7 (17:20) 23 (00:00) 28.9 8.89 (20:40) 6.94 (20:30) 0 0 0 0 0
19-09-2019 28.9 (17:00) 14.7 (00:00) 21.8 8.61 (16:40) 5 (18:00) 0 0 0 0 0
18-09-2019 28.2 (16:00) 16.4 (00:00) 22.3 8.06 (17:10) 5.83 (06:50) 0 0 0 0 0
17-09-2019 29.9 (15:10) 18.5 (00:00) 24.2 12.5 (17:40) 8.33 (17:50) 0 0 0 0 0
16-09-2019 27.8 (17:40) 18.7 (00:00) 23.3 6.39 (21:00) 5.28 (21:00) 0 0 0 0 0
15-09-2019 26.9 (18:30) 14.7 (00:00) 20.8 6.94 (15:10) 4.44 (17:50) 0 0 0 0 0
14-09-2019 23.9 (15:30) 14.4 (00:00) 19.1 9.17 (14:00) 6.39 (02:10) 0 0 0 0 0
12-09-2019 28.5 (16:20) 15.2 (00:00) 21.8 24.72 (14:20) 13.61 (17:00) 0 0 0 0 0
11-09-2019 26.2 (19:10) 10.3 (00:00) 18.3 15.83 (13:20) 10.83 (12:10) 0 0 0 0 0
10-09-2019 23.9 (17:30) 11.2 (06:10) 17.5 15 (16:20) 10.56 (16:20) 0 0 0 0 0
09-09-2019 29.5 (15:20) 15.9 (07:50) 22.7 15.56 (15:30) 11.11 (19:00) 0 0 0 0 0
08-09-2019 30.2 (15:20) 16.1 (00:00) 23.2 8.89 (16:20) 6.67 (19:30) 0 0 0 0 0
07-09-2019 30.6 (13:40) 19.1 (00:00) 24.9 10.83 (15:50) 8.33 (15:50) 0 0 0 0 0
06-09-2019 32.7 (16:20) 17.9 (00:00) 25.3 8.33 (07:20) 6.11 (07:10) 0 0 0 0 0
21-08-2019 33.4 (17:20) 18.1 (00:00) 25.8 7.78 (15:20) 5.83 (04:10) 0 0 0 0 0
04-09-2019 34.8 (15:40) 21.7 (00:00) 28.3 10.56 (18:20) 6.39 (20:10) 0 0 0 0 0
03-09-2019 34.6 (15:30) 21.4 (00:00) 28 12.5 (17:20) 10 (17:30) 0 0 0 0 0
02-09-2019 34.8 (17:50) 22.3 (00:00) 28.5 11.67 (17:00) 6.39 (18:00) 0 0 0 0 0
01-09-2019 35 (17:30) 21.4 (00:00) 28.2 12.22 (13:40) 7.78 (20:20) 0 0 0 0 0
31-08-2019 34.7 (17:40) 22 (00:00) 28.4 9.17 (21:10) 6.11 (21:20) 0 0 0 0 0
30-08-2019 35.1 (17:20) 20.9 (00:00) 28 10.83 (15:30) 6.11 (21:20) 0 0 0 0 0
29-08-2019 34.4 (18:30) 21.3 (00:00) 27.9 10.83 (21:10) 8.61 (21:10) 0 0 0 0 0
28-08-2019 32.8 (17:50) 19.1 (00:00) 25.9 9.72 (16:20) 5.56 (21:20) 0 0 0 0 0
27-08-2019 29 (17:50) 15.8 (00:00) 22.4 8.61 (18:50) 5.28 (18:00) 0 0 0 0 0
25-08-2019 33.2 (17:20) 19.9 (00:00) 26.6 9.72 (15:10) 6.39 (22:10) 0 0 0 0 0
24-08-2019 35.1 (18:10) 19.9 (00:00) 27.5 12.5 (16:40) 7.22 (08:40) 0 0 0 0 0
23-08-2019 34.3 (17:00) 20.1 (00:00) 27.2 15 (13:00) 10 (11:00) 0 0 0 0 0
22-08-2019 34.3 (17:00) 19.5 (00:00) 26.9 10.56 (15:30) 7.22 (14:50) 0 0 0 0 0

Gráficas

Temp. máximas Temp. mínimas Temp. medias Precipitaciones Rachas de viento máximas Velocidades máximas media en intervalos de 10 minutos

Datos horarios

Fecha y hora oficial Temperatura (ºC) Velocidad del viento (km/h) Dirección del viento Racha (km/h) Dirección de racha Precipitación (mm) Presión (hPa) Tendencia (hPa) Humedad (%)
2019-09-19 23:00:00 21.9 6 Sudoeste 8 Sudoeste 0 -- -- 47
2019-09-19 22:00:00 22.8 4 Sudoeste 14 Sur 0 -- -- 38
2019-09-19 21:00:00 24.1 11 Sur 23 Sur 0 -- -- 35
2019-09-19 20:00:00 26.4 16 Sur 21 Sur 0 -- -- 30
2019-09-19 19:00:00 27.5 13 Sur 27 Sur 0 -- -- 28
2019-09-19 18:00:00 28.4 18 Sudoeste 27 Sudeste 0 -- -- 26
2019-09-19 17:00:00 28.9 13 Sudeste 31 Sur 0 -- -- 27
2019-09-19 16:00:00 28.4 14 Este 27 Sudeste 0 -- -- 29
2019-09-19 15:00:00 27.5 9 Sudeste 24 Sudeste 0 -- -- 30
2019-09-19 14:00:00 26.9 8 Sur 26 Sudeste 0 -- -- 33
2019-09-19 13:00:00 25.9 14 Sudeste 24 Sudeste 0 -- -- 38
2019-09-19 12:00:00 24 10 Este 18 Este 0 -- -- 48
2019-09-19 11:00:00 21.8 6 Nordeste 12 Este 0 -- -- 57
2019-09-19 10:00:00 19.4 8 Este 12 Este 0 -- -- 64
2019-09-19 09:00:00 17 6 Este 10 Este 0 -- -- 72
2019-09-19 08:00:00 14.9 4 Sudeste 5 Sudeste 0 -- -- 78
2019-09-19 07:00:00 14.9 4 Sur 5 Sur 0 -- -- 76
2019-09-19 06:00:00 15.4 3 Sudoeste 5 Oeste 0 -- -- 75
2019-09-19 05:00:00 15.9 4 Oeste 8 Sudoeste 0 -- -- 73
2019-09-19 04:00:00 15.9 6 Sudoeste 10 Sudoeste 0 -- -- 72
2019-09-19 03:00:00 16.5 6 Sudoeste 14 Sudoeste 0 -- -- 67
2019-09-19 02:00:00 17.2 12 Sudoeste 17 Sudoeste 0 -- -- 64
2019-09-19 01:00:00 18.2 11 Sudoeste 16 Sudoeste 0 -- -- 60
2019-09-19 00:00:00 19.6 9 Sudoeste 13 Oeste 0 -- -- 54
2019-09-18 23:00:00 20.7 11 Oeste 19 Oeste 0 -- -- 52
2019-09-18 22:00:00 22.5 11 Oeste 16 Sudoeste 0 -- -- 47
2019-09-18 21:00:00 24.3 15 Sudoeste 25 Sudoeste 0 -- -- 44
2019-09-18 20:00:00 26.1 19 Sur 25 Sur 0 -- -- 38
2019-09-18 19:00:00 27.6 6 Nordeste 21 Sudoeste 0 -- -- 32
2019-09-18 18:00:00 27.5 10 Oeste 29 Sudoeste 0 -- -- 31
2019-09-18 17:00:00 27.9 18 Sudoeste 28 Sudoeste 0 -- -- 28
2019-09-18 16:00:00 28.2 9 Sudoeste 25 Sur 0 -- -- 27
2019-09-18 15:00:00 27.3 10 Sur 27 Sudoeste 0 -- -- 32
2019-09-18 14:00:00 27 10 Sudeste 28 Sudeste 0 -- -- 37
2019-09-18 13:00:00 25.7 8 Oeste 21 Sudoeste 0 -- -- 37
2019-09-18 12:00:00 23.8 4 Oeste 16 Sur 0 -- -- 46
2019-09-18 11:00:00 21.7 12 Sur 18 Sudeste 0 -- -- 52
2019-09-18 10:00:00 19.5 11 Sudeste 19 Sudeste 0 -- -- 67
2019-09-18 09:00:00 16.9 14 Sudeste 19 Sur 0 -- -- 80
2019-09-18 08:00:00 16.5 14 Sudeste 20 Sudeste 0 -- -- 79
2019-09-18 07:00:00 17.6 20 Sudeste 24 Sudeste 0 -- -- 78
2019-09-18 06:00:00 18.1 16 Este 21 Este 0 -- -- 77
2019-09-18 05:00:00 18.6 13 Sudeste 15 Sudeste 0 -- -- 77
2019-09-18 04:00:00 19.2 9 Sudeste 11 Sudeste 0 -- -- 73
2019-09-18 03:00:00 18.8 7 Sudeste 8 Sudeste 0 -- -- 74
2019-09-18 02:00:00 19.1 5 Sudoeste 12 Sur 0 -- -- 73
2019-09-18 01:00:00 20 9 Sudoeste 12 Sudoeste 0 -- -- 68
2019-09-18 00:00:00 20.8 11 Oeste 17 Oeste 0 -- -- 64
2019-09-17 23:00:00 21.6 9 Oeste 23 Sudoeste 0 -- -- 62
2019-09-17 22:00:00 23.1 18 Sudoeste 25 Sudoeste 0 -- -- 58
2019-09-17 21:00:00 24.8 13 Sur 28 Sur 0 -- -- 44
2019-09-15 18:00:00 25.9 14 Oeste 23 Noroeste 0 -- -- 40
2019-09-15 17:00:00 25.8 11 Noroeste 24 Oeste 0 -- -- 40
2019-09-15 16:00:00 26.1 6 Oeste 25 Sudoeste 0 -- -- 42
2019-09-15 15:00:00 26.3 11 Sudoeste 22 Sudoeste 0 -- -- 42
2019-09-15 14:00:00 25.2 9 Oeste 19 Oeste 0 -- -- 45
2019-09-15 13:00:00 24 8 Oeste 19 Sudoeste 0 -- -- 51
2019-09-15 12:00:00 23.1 3 Noroeste 11 Nordeste 0 -- -- 56
2019-09-15 11:00:00 20.4 3 Noroeste 10 Oeste 0 -- -- 67
2019-09-15 10:00:00 19.5 2 Sur 5 Sudeste 0 -- -- 73
2019-09-15 09:00:00 17.3 3 Sur 6 Sudeste 0 -- -- 77
2019-09-15 08:00:00 15.6 6 Sudeste 12 Sudeste 0 -- -- 85
2019-09-15 07:00:00 15.8 6 Sudeste 9 Sudeste 0 -- -- 87
2019-09-15 06:00:00 15.6 5 Nordeste 10 Nordeste 0 -- -- 90
2019-09-15 05:00:00 14.8 10 Nordeste 13 Nordeste 0 -- -- 89
2019-09-15 04:00:00 16.5 3 Sur 5 Sur 0 -- -- 86
2019-09-15 03:00:00 16.5 3 Sudeste -- -- 0 -- -- 87
2019-09-15 02:00:00 17 2 Noroeste 7 Noroeste 0 -- -- 83
2019-09-15 01:00:00 17.5 3 Sudeste 15 Este 0 -- -- 83
2019-09-15 00:00:00 18.1 9 Nordeste 12 Nordeste 0 -- -- 80
2019-09-14 23:00:00 18.8 6 Nordeste 8 Norte 0 -- -- 78
2019-09-14 22:00:00 19 7 Norte 8 Norte 0 -- -- 77
2019-09-14 21:00:00 19.2 4 Oeste 14 Este 0 -- -- 75
2019-09-14 20:00:00 19.7 12 Este 17 Este 0 -- -- 66
2019-09-14 19:00:00 20.2 11 Este 23 Sudeste 0 -- -- 66
2019-09-14 18:00:00 20.4 16 Este 21 Este 0 -- -- 69
2019-09-14 17:00:00 21.4 14 Nordeste 29 Nordeste 0 -- -- 64
2019-09-14 16:00:00 23.4 11 Este 25 Nordeste 0 -- -- 47
2019-09-14 15:00:00 23.6 15 Este 26 Este 0 -- -- 50
2019-09-14 14:00:00 23.6 18 Nordeste 33 Nordeste 0 -- -- 56
2019-09-14 13:00:00 21.4 12 Este 25 Nordeste 0 -- -- 67
2019-09-14 12:00:00 21 18 Este 29 Este 0 -- -- 70
2019-09-14 11:00:00 18.4 16 Nordeste 21 Nordeste 0 -- -- 83
2019-09-14 10:00:00 16.7 13 Nordeste 17 Nordeste 0 -- -- 87
2019-09-14 09:00:00 15.4 8 Nordeste 15 Nordeste 0 -- -- 91
2019-09-14 08:00:00 15.2 11 Nordeste 18 Este 0 -- -- 88
2019-09-14 07:00:00 14.6 14 Nordeste 20 Nordeste 0 -- -- 89
2019-09-14 06:00:00 14.5 3 Sudeste 14 Nordeste 0 -- -- 85
2019-09-14 05:00:00 14.8 10 Este 21 Este 0 -- -- 84
2019-09-14 04:00:00 15.5 18 Nordeste 22 Nordeste 0 -- -- 80
2019-09-14 03:00:00 15.7 19 Este 27 Este 0 -- -- 84
2019-09-14 02:00:00 16.1 22 Este 27 Este 0 -- -- 83
2019-09-14 01:00:00 15.9 19 Este 25 Este 0 -- -- 87
2019-09-14 00:00:00 15.8 19 Este 26 Este 0 -- -- 90
2019-09-13 23:00:00 16.2 10 Sudeste 28 Sudeste 0 -- -- 88
2019-09-13 22:00:00 16.5 24 Este 40 Sudeste 4.2 -- -- 85
2019-09-13 21:00:00 18.9 14 Sudeste 36 Sudeste 0 -- -- 63
2019-09-13 20:00:00 22.1 28 Nordeste 37 Norte 0 -- -- 52
2019-09-13 19:00:00 23 28 Nordeste 37 Nordeste 0 -- -- 49
2019-09-13 18:00:00 23.8 24 Nordeste 38 Nordeste 0 -- -- 47
2019-09-13 17:00:00 22.8 30 Nordeste 41 Este 0 -- -- 51
2019-09-13 16:00:00 21 27 Este 46 Este 0 -- -- 57
2019-09-13 15:00:00 20 40 Este 56 Nordeste 0 -- -- 59
2019-09-13 14:00:00 21.5 47 Nordeste 60 Nordeste 0 -- -- 52
2019-09-13 13:00:00 20.5 39 Nordeste 54 Este 0.2 -- -- 60
2019-09-13 12:00:00 17.6 20 Este 42 Este 0 -- -- 79
2019-09-13 11:00:00 18.3 37 Nordeste 49 Nordeste 0 -- -- 69
2019-09-13 10:00:00 19 32 Este 44 Nordeste 0 -- -- 62
2019-09-13 09:00:00 17 25 Este 43 Nordeste 0 -- -- 68
2019-09-13 08:00:00 16.8 27 Nordeste 41 Nordeste 0 -- -- 67
2019-09-13 07:00:00 17.5 33 Nordeste 50 Nordeste 0 -- -- 63
2019-09-13 06:00:00 17 28 Nordeste 39 Nordeste 0 -- -- 65
2019-09-13 05:00:00 17.9 28 Nordeste 39 Este 0 -- -- 64
2019-09-13 04:00:00 17.9 28 Este 36 Este 0 -- -- 64
2019-09-13 03:00:00 17.4 29 Nordeste 41 Nordeste 0 -- -- 68
2019-09-13 02:00:00 18.5 25 Este 45 Este 0 -- -- 65
2019-09-13 01:00:00 19.6 26 Este 51 Este 0 -- -- 58
2019-09-13 00:00:00 20 25 Este 35 Este 0 -- -- 60
2019-09-12 23:00:00 19.7 14 Este 28 Este 0 -- -- 56
2019-09-12 22:00:00 20.8 25 Este 41 Este 0 -- -- 53
2019-09-12 21:00:00 21.7 27 Este 43 Nordeste 0 -- -- 50
2019-09-12 20:00:00 23.3 35 Este 55 Nordeste 0 -- -- 46
2019-09-12 19:00:00 24.4 42 Nordeste 60 Este 0 -- -- 42
2019-09-12 18:00:00 25.9 48 Este 60 Este 0 -- -- 36
2019-09-12 17:00:00 27.3 49 Este 70 Nordeste 0 -- -- 34
2019-09-12 16:00:00 27.6 41 Nordeste 62 Este 0 -- -- 35
2019-09-12 15:00:00 27.4 48 Este 89 Nordeste 0 -- -- 36
2019-09-12 14:00:00 26.4 41 Este 61 Este 0 -- -- 36
2019-09-12 13:00:00 25.7 44 Este 68 Nordeste 0 -- -- 38
2019-09-12 12:00:00 24.2 46 Nordeste 60 Nordeste 0 -- -- 41
2019-09-12 11:00:00 21.1 44 Nordeste 61 Nordeste 0 -- -- 48
2019-09-12 10:00:00 19.1 33 Norte 41 Norte 0 -- -- 52
2019-09-12 09:00:00 16.5 26 Norte 31 Nordeste 0 -- -- 61
2019-09-12 08:00:00 15.3 24 Nordeste 35 Este 0 -- -- 64
2019-09-12 07:00:00 15.7 30 Nordeste 39 Nordeste 0 -- -- 58
2019-09-12 06:00:00 16.2 31 Nordeste 45 Nordeste 0 -- -- 53
2019-09-12 05:00:00 17.1 41 Nordeste 51 Nordeste 0 -- -- 46
2019-09-12 04:00:00 16.9 33 Nordeste 46 Nordeste 0 -- -- 47
2019-09-12 03:00:00 18.4 28 Este 56 Este 0 -- -- 45
2019-09-12 02:00:00 18.6 23 Nordeste 33 Este 0 -- -- 48
2019-09-12 01:00:00 19.7 21 Nordeste 32 Este 0 -- -- 44
2019-09-12 00:00:00 21.4 28 Este 44 Este 0 -- -- 40
2019-09-11 23:00:00 22.4 27 Este 41 Nordeste 0 -- -- 37
2019-09-11 22:00:00 22.2 15 Norte 26 Norte 0 -- -- 35
2019-09-11 21:00:00 24.2 21 Norte 32 Norte 0 -- -- 32
2019-09-11 20:00:00 25.9 22 Norte 40 Norte 0 -- -- 30
2019-09-11 19:00:00 26 18 Norte 36 Norte 0 -- -- 30
2019-09-11 18:00:00 25.7 19 Nordeste 40 Nordeste 0 -- -- 30
2019-09-11 17:00:00 25.3 22 Norte 40 Nordeste 0 -- -- 30
2019-09-11 16:00:00 24.8 29 Norte 40 Norte 0 -- -- 30
2019-09-11 15:00:00 23.9 27 Nordeste 43 Nordeste 0 -- -- 31
2019-09-11 14:00:00 22.7 24 Nordeste 57 Nordeste 0 -- -- 33
2019-09-11 13:00:00 22.2 33 Nordeste 52 Nordeste 0 -- -- 34
2019-09-11 12:00:00 21 35 Nordeste 49 Nordeste 0 -- -- 36
2019-09-11 11:00:00 19.3 30 Nordeste 36 Nordeste 0 -- -- 39
2019-09-11 10:00:00 16.6 26 Nordeste 38 Nordeste 0 -- -- 46
2019-09-11 09:00:00 13 13 Nordeste 21 Nordeste 0 -- -- 54
2019-09-11 08:00:00 10.3 8 Norte 12 Nordeste 0 -- -- 56
2019-09-11 07:00:00 12 10 Nordeste 20 Nordeste 0 -- -- 52
2019-09-11 06:00:00 11.9 11 Nordeste 21 Norte 0 -- -- 51
2019-09-11 05:00:00 14.1 18 Norte 26 Norte 0 -- -- 47
2019-09-11 04:00:00 14.5 21 Norte 26 Norte 0 -- -- 44
2019-09-11 03:00:00 15.1 20 Norte 23 Norte 0 -- -- 40
2019-09-11 02:00:00 15.5 14 Noroeste 21 Noroeste 0 -- -- 38
2019-09-11 01:00:00 16.3 19 Norte 21 Norte 0 -- -- 35
2019-09-11 00:00:00 17.1 17 Norte 24 Norte 0 -- -- 34
2019-09-10 23:00:00 17.9 19 Norte 26 Norte 0 -- -- 32
2019-09-10 22:00:00 18.9 22 Norte 28 Norte 0 -- -- 29
2019-09-10 21:00:00 20.3 22 Norte 43 Norte 0 -- -- 27
2019-09-10 20:00:00 22.3 33 Norte 45 Norte 0 -- -- 21
2019-09-10 19:00:00 23.5 32 Noroeste 47 Noroeste 0 -- -- 21
2019-09-10 18:00:00 23.5 34 Noroeste 51 Norte 0 -- -- 25
2019-09-10 17:00:00 23.3 35 Norte 54 Norte 0 -- -- 25
2019-09-10 16:00:00 22.7 35 Noroeste 47 Noroeste 0 -- -- 28
2019-09-10 15:00:00 21.3 26 Noroeste 45 Noroeste 0 -- -- 31
2019-09-10 14:00:00 20.4 30 Noroeste 52 Noroeste 0 -- -- 34
2019-09-10 13:00:00 19 30 Noroeste 46 Noroeste 0 -- -- 47
2019-09-10 12:00:00 17.5 30 Noroeste 45 Noroeste 0 -- -- 59
2019-09-10 11:00:00 16.5 33 Noroeste 46 Noroeste 0 -- -- 65
2019-09-10 10:00:00 14.1 28 Noroeste 38 Noroeste 0 -- -- 80
2019-09-10 09:00:00 12.1 22 Oeste 28 Oeste 0 -- -- 89
2019-09-10 08:00:00 11.3 17 Oeste 26 Oeste 0 -- -- 88
2019-09-10 07:00:00 11.2 20 Oeste 24 Oeste 0 -- -- 87
2019-09-10 06:00:00 11.3 21 Oeste 32 Oeste 0 -- -- 83
2019-09-10 05:00:00 12 19 Oeste 27 Oeste 0 -- -- 77
2019-09-10 04:00:00 13.1 19 Oeste 29 Oeste 0 -- -- 69
2019-09-10 03:00:00 14 10 Sudoeste 27 Oeste 0 -- -- 57
2019-09-10 02:00:00 15.5 24 Oeste 38 Oeste 0 -- -- 51
2019-09-10 01:00:00 17.3 21 Oeste 30 Oeste 0 -- -- 52
2019-09-10 00:00:00 19.5 23 Oeste 35 Oeste 0 -- -- 41
2019-09-09 23:00:00 21.6 24 Oeste 30 Oeste 0 -- -- 39
2019-09-09 22:00:00 23 20 Oeste 38 Oeste 0 -- -- 40
2019-09-09 21:00:00 24.6 32 Oeste 42 Oeste 0 -- -- 39
2019-09-09 20:00:00 26.3 33 Oeste 49 Oeste 0 -- -- 35
2019-09-09 19:00:00 27.8 40 Oeste 50 Oeste 0 -- -- 28
2019-09-09 18:00:00 29.2 35 Oeste 53 Oeste 0 -- -- 28
2019-09-09 17:00:00 29.2 36 Oeste 54 Oeste 0 -- -- 28
2019-09-09 16:00:00 28.2 34 Oeste 56 Sudoeste 0 -- -- 30
2019-09-09 15:00:00 29.4 27 Oeste 43 Oeste 0 -- -- 28
2019-09-09 14:00:00 28.3 22 Oeste 36 Oeste 0 -- -- 30
2019-09-09 13:00:00 26.9 15 Oeste 27 Sudoeste 0 -- -- 33
2019-09-09 12:00:00 25.3 10 Oeste 19 Oeste 0 -- -- 36
2019-09-09 11:00:00 23.6 8 Oeste 13 Oeste 0 -- -- 38
2019-09-09 10:00:00 20.2 5 Sudoeste 9 Sudoeste 0 -- -- 54
2019-09-09 09:00:00 17.1 8 Sur 11 Sudoeste 0 -- -- 73
2019-09-09 08:00:00 15.9 9 Sudoeste 11 Sudoeste 0 -- -- 80
2019-09-09 07:00:00 16.2 9 Oeste 14 Oeste 0 -- -- 80
2019-09-09 06:00:00 16.4 14 Oeste 17 Oeste 0 -- -- 79
2019-09-09 05:00:00 16.9 13 Oeste 19 Oeste 0 -- -- 77
2019-09-09 04:00:00 17.4 13 Oeste 20 Oeste 0 -- -- 76
2019-09-09 03:00:00 18.2 15 Oeste 18 Sudoeste 0 -- -- 74
2019-09-09 02:00:00 19.2 15 Oeste 21 Oeste 0 -- -- 69
2019-09-09 01:00:00 20.2 12 Sudoeste 17 Sudoeste 0 -- -- 63
2019-09-09 00:00:00 20.6 12 Sudeste 16 Sudeste 0 -- -- 55
2019-09-08 23:00:00 21.5 6 Sudoeste 12 Sudoeste 0 -- -- 52
2019-09-08 22:00:00 22.7 8 Sudoeste 22 Sudoeste 0 -- -- 48
2019-09-08 21:00:00 24.2 14 Sudoeste 26 Oeste 0 -- -- 42
2019-09-08 20:00:00 24.8 15 Sudoeste 31 Sur 0 -- -- 41
2019-09-08 19:00:00 26.5 11 Sur 18 Sudoeste 0 -- -- 36
2019-09-08 18:00:00 28.2 12 Norte 22 Noroeste 0 -- -- 26
2019-09-08 17:00:00 28.4 13 Oeste 32 Oeste 0 -- -- 27
2019-09-08 16:00:00 28.6 10 Norte 27 Nordeste 0 -- -- 29
2019-09-08 15:00:00 29.2 10 Norte 28 Noroeste 0 -- -- 31
2019-09-08 14:00:00 26.8 5 Noroeste 19 Norte 0 -- -- 38
2019-09-08 13:00:00 25.3 12 Noroeste 22 Noroeste 0 -- -- 45
2019-09-08 12:00:00 23.7 14 Oeste 22 Noroeste 0 -- -- 51
2019-09-08 11:00:00 21.5 10 Oeste 16 Oeste 0 -- -- 64
2019-09-08 10:00:00 19.3 9 Sudoeste 13 Sudoeste 0 -- -- 72
2019-09-08 09:00:00 17.4 4 Sudeste 13 Sudoeste 0 -- -- 77
2019-09-08 08:00:00 16.1 12 Sudoeste 15 Sudoeste 0 -- -- 79
2019-09-08 07:00:00 16.7 12 Sudoeste 15 Oeste 0 -- -- 76
2019-09-08 06:00:00 17 14 Oeste 21 Oeste 0 -- -- 76
2019-09-08 05:00:00 17.9 18 Oeste 24 Oeste 0 -- -- 76
2019-09-08 04:00:00 19 16 Oeste 25 Sudoeste 0 -- -- 71
2019-09-08 03:00:00 19.9 17 Sudoeste 25 Sudoeste 0 -- -- 68
2019-09-08 02:00:00 20.8 17 Sudoeste 21 Sudoeste 0 -- -- 64
2019-09-08 01:00:00 22 8 Sur 14 Sudoeste 0 -- -- 56
2019-09-08 00:00:00 23.3 9 Sudoeste 21 Sudoeste 0 -- -- 50
2019-09-07 23:00:00 23 6 Sudeste 15 Este 0 -- -- 48
2019-09-07 22:00:00 24.4 10 Este 16 Este 0 -- -- 45
2019-09-07 21:00:00 25.4 8 Sudeste 20 Sudeste 0 -- -- 44
2019-09-07 20:00:00 26 18 Sudeste 31 Sudeste 0 -- -- 42
2019-09-07 19:00:00 27.9 7 Sur 21 Sudoeste 0 -- -- 37
2019-09-07 18:00:00 28.7 16 Sudoeste 23 Sudoeste 0 -- -- 35
2019-09-07 17:00:00 28.2 10 Sudeste 38 Sudeste 0 -- -- 33
2019-09-07 16:00:00 26.1 30 Sudeste 39 Sudeste 0 -- -- 39
2019-09-07 15:00:00 29.1 8 Norte 24 Noroeste 0 -- -- 32
2019-09-07 14:00:00 30.2 12 Noroeste 20 Noroeste 0 -- -- 27
2019-09-07 13:00:00 28.5 13 Oeste 26 Noroeste 0 -- -- 40
2019-09-07 12:00:00 27.8 7 Norte 22 Este 0 -- -- 44
2019-09-07 11:00:00 25.1 10 Este 21 Este 0 -- -- 49
2019-09-07 10:00:00 21.2 17 Este 23 Este 0 -- -- 56
2019-09-07 09:00:00 19.6 20 Este 30 Este 0 -- -- 58
2019-09-07 08:00:00 20.5 17 Este 23 Este 0 -- -- 50
2019-09-07 07:00:00 21.2 18 Este 24 Sudeste 0 -- -- 39
2019-09-07 06:00:00 21.7 8 Sudeste 12 Sudeste 0 -- -- 44
2019-09-07 05:00:00 21.8 7 Sudeste 9 Sudeste 0 -- -- 36
2019-09-07 04:00:00 20.4 5 Sur 12 Norte 0 -- -- 37
2019-09-07 03:00:00 21.8 2 Sur 8 Sur 0 -- -- 36
2019-09-07 02:00:00 22.1 4 Sudoeste 18 Nordeste 0 -- -- 35
2019-09-07 01:00:00 22.4 13 Nordeste 22 Norte 0 -- -- 36
2019-09-07 00:00:00 23.9 8 Norte 13 Norte 0 -- -- 33
2019-09-06 23:00:00 25.2 7 Norte 17 Norte 0 -- -- 33
2019-09-06 22:00:00 26.2 15 Norte 21 Norte 0 -- -- 32
2019-09-06 21:00:00 28.2 18 Norte 27 Norte 0 -- -- 31
2019-09-06 20:00:00 30 18 Norte 27 Norte 0 -- -- 29
2019-09-06 19:00:00 31.2 17 Noroeste 26 Norte 0 -- -- 28
2019-09-06 18:00:00 32.6 19 Nordeste 28 Norte 0 -- -- 27
2019-09-06 17:00:00 32.1 14 Norte 28 Norte 0 -- -- 27
2019-09-06 16:00:00 31.7 3 Norte 20 Oeste 0 -- -- 30
2019-09-06 15:00:00 30.6 11 Norte 26 Este 0 -- -- 36
2019-09-06 14:00:00 30.3 6 Sudoeste 15 Sudoeste 0 -- -- 35
2019-09-06 13:00:00 29 8 Sudeste 25 Sur 0 -- -- 41
2019-09-06 12:00:00 27 14 Sudeste 26 Este 0 -- -- 51
2019-09-06 11:00:00 25.6 8 Este 13 Sudeste 0 -- -- 55
2019-09-06 10:00:00 22.8 4 Sur 9 Sudeste 0 -- -- 64
2019-09-06 09:00:00 20.3 8 Sudeste 24 Sudeste 0 -- -- 72
2019-09-06 08:00:00 18.5 22 Sudeste 30 Este 0 -- -- 73
2019-09-06 07:00:00 18.3 21 Este 26 Este 0 -- -- 71
2019-09-06 06:00:00 18.9 12 Este 25 Este 0 -- -- 61
2019-09-06 05:00:00 20.5 15 Este 23 Este 0 -- -- 59
2019-09-06 04:00:00 21.2 15 Este 19 Este 0 -- -- 48
2019-09-06 03:00:00 22.5 5 Norte 22 Este 0 -- -- 37
2019-09-06 02:00:00 23.4 16 Este 20 Este 0 -- -- 34
2019-09-06 01:00:00 24.2 8 Norte 13 Nordeste 0 -- -- 32
2019-09-06 00:00:00 26.2 5 Norte 13 Noroeste 0 -- -- 29
2019-09-05 23:00:00 26.7 9 Nordeste 12 Nordeste 0 -- -- 27
2019-09-05 22:00:00 28.5 8 Este 21 Norte 0 -- -- 25
2019-09-05 21:00:00 30.6 18 Norte 32 Norte 0 -- -- 24
2019-09-05 20:00:00 32.5 16 Norte 30 Noroeste 0 -- -- 20
2019-09-05 19:00:00 33.1 12 Norte 27 Oeste 0 -- -- 20
2019-09-05 18:00:00 33.4 6 Oeste 25 Noroeste 0 -- -- 20
2019-09-05 17:00:00 34.4 8 Norte 27 Sudoeste 0 -- -- 20
2019-09-05 16:00:00 34.4 17 Oeste 30 Oeste 0 -- -- 20
2019-09-05 15:00:00 33.6 12 Norte 27 Norte 0 -- -- 21
2019-09-05 14:00:00 33 12 Norte 30 Noroeste 0 -- -- 21
2019-09-05 13:00:00 32.5 6 Noroeste 18 Nordeste 0 -- -- 21
2019-09-05 12:00:00 31.2 7 Nordeste 18 Norte 0 -- -- 23
2019-09-05 11:00:00 28.8 12 Norte 17 Nordeste 0 -- -- 29
2019-09-05 10:00:00 26.2 3 Oeste 6 Sudoeste 0 -- -- 33
2019-09-05 09:00:00 24.2 5 Sudoeste 6 Sur 0 -- -- 35
2019-09-05 08:00:00 23.1 5 Sudoeste 7 Sudoeste 0 -- -- 39
2019-09-05 07:00:00 23.3 3 Sudoeste 5 Oeste 0 -- -- 41
2019-09-05 06:00:00 23.4 4 Sudoeste 6 Sudoeste 0 -- -- 42
2019-09-05 05:00:00 23.4 5 Sudoeste 6 Sudoeste 0 -- -- 45
2019-09-05 04:00:00 23.8 4 Sur 9 Sudoeste 0 -- -- 45
2019-09-05 03:00:00 23.8 5 Sudoeste 8 Sudoeste 0 -- -- 46
2019-09-05 02:00:00 24.7 5 Oeste 9 Oeste 0 -- -- 45
2019-09-05 01:00:00 25.5 7 Oeste 19 Oeste 0 -- -- 43
2019-09-05 00:00:00 26.4 15 Oeste 23 Oeste 0 -- -- 41
2019-09-04 23:00:00 27.3 10 Oeste 17 Oeste 0 -- -- 36
2019-09-04 22:00:00 28.5 7 Sudoeste 15 Sudoeste 0 -- -- 31
2019-09-04 21:00:00 30.4 17 Sudoeste 30 Sudoeste 0 -- -- 28
2019-09-04 20:00:00 32.6 22 Sudoeste 28 Sudoeste 0 -- -- 25
2019-09-04 19:00:00 34 13 Norte 38 Oeste 0 -- -- 19
2019-09-04 18:00:00 33.8 8 Norte 27 Noroeste 0 -- -- 19
2019-09-04 17:00:00 34.6 17 Norte 32 Norte 0 -- -- 18
2019-09-04 16:00:00 34.8 14 Norte 29 Noroeste 0 -- -- 19
2019-09-04 15:00:00 34.2 16 Norte 29 Norte 0 -- -- 20
2019-09-04 14:00:00 33.7 12 Norte 28 Nordeste 0 -- -- 21
2019-09-04 13:00:00 32.3 5 Nordeste 12 Oeste 0 -- -- 24
2019-09-04 12:00:00 29.9 6 Oeste 15 Oeste 0 -- -- 32
2019-09-04 11:00:00 27.6 3 Sur 14 Este 0 -- -- 38
2019-09-04 10:00:00 24.9 9 Este 15 Este 0 -- -- 43
2019-09-04 09:00:00 21.9 13 Este 14 Este 0 -- -- 49
2019-09-04 08:00:00 21.7 5 Sur -- -- 0 -- -- 50
2019-09-04 07:00:00 22.3 4 Sudoeste 9 Sudoeste 0 -- -- 49
2019-09-04 06:00:00 22.4 7 Sudoeste 9 Sudoeste 0 -- -- 49
2019-09-04 05:00:00 22.6 8 Sudoeste 10 Sudoeste 0 -- -- 48
2019-09-04 04:00:00 22.8 8 Sudoeste 12 Sudoeste 0 -- -- 47
2019-09-04 03:00:00 23.1 8 Sudoeste 16 Sudoeste 0 -- -- 46
2019-09-04 02:00:00 23.7 10 Sudoeste 14 Sudoeste 0 -- -- 44
2019-09-04 01:00:00 24.9 10 Sudoeste 17 Oeste 0 -- -- 40
2019-09-04 00:00:00 25.3 12 Oeste 16 Oeste 0 -- -- 38
2019-09-03 23:00:00 26.3 5 Sudoeste 10 Oeste 0 -- -- 37
2019-09-03 22:00:00 27.1 7 Sudoeste 15 Sudoeste 0 -- -- 36
2019-09-03 21:00:00 28.2 10 Sudoeste 34 Sudoeste 0 -- -- 35
2019-09-03 20:00:00 30.3 29 Sudoeste 39 Sudoeste 0 -- -- 32
2019-09-03 19:00:00 32.8 31 Sur 41 Sudeste 0 -- -- 28
2019-09-03 18:00:00 33.7 30 Sudoeste 45 Sur 0 -- -- 24
2019-09-03 17:00:00 33.7 3 Oeste 19 Este 0 -- -- 23
2019-09-03 16:00:00 33.9 10 Nordeste 19 Norte 0 -- -- 23
2019-09-03 15:00:00 34.3 13 Nordeste 22 Este 0 -- -- 24
2019-09-03 14:00:00 33.2 9 Nordeste 19 Este 0 -- -- 27
2019-09-03 13:00:00 32.6 8 Este 16 Este 0 -- -- 25
2019-09-03 12:00:00 30.8 4 Este 12 Este 0 -- -- 30
2019-09-03 11:00:00 29 8 Este 12 Este 0 -- -- 33
2019-09-03 10:00:00 26.4 8 Este 13 Sudeste 0 -- -- 38
2019-09-03 09:00:00 24 7 Este 15 Sudeste 0 -- -- 42
2019-09-03 08:00:00 22.5 15 Sudeste 18 Sudeste 0 -- -- 44
2019-09-03 07:00:00 22.7 12 Este 16 Sudeste 0 -- -- 44
2019-09-03 06:00:00 21.9 12 Sudeste 15 Sudeste 0 -- -- 45
2019-09-03 05:00:00 21.6 8 Sur 11 Sur 0 -- -- 48
2019-09-03 04:00:00 21.9 9 Sudoeste 13 Sudoeste 0 -- -- 47
2019-09-03 03:00:00 22.3 10 Sudoeste 18 Oeste 0 -- -- 45
2019-09-03 02:00:00 23.5 15 Oeste 20 Oeste 0 -- -- 42
2019-09-03 01:00:00 24.5 12 Oeste 18 Oeste 0 -- -- 38
2019-09-03 00:00:00 25.4 13 Oeste 17 Sudoeste 0 -- -- 36
2019-09-02 23:00:00 26.5 14 Sudoeste 20 Sudoeste 0 -- -- 33
2019-09-02 22:00:00 28.6 17 Oeste 32 Sudoeste 0 -- -- 29
2019-09-02 21:00:00 31.4 20 Sudoeste 26 Sudoeste 0 -- -- 27
2019-09-02 20:00:00 33 16 Sudoeste 34 Sudeste 0 -- -- 24
2019-09-02 19:00:00 33.7 17 Sudeste 29 Sur 0 -- -- 25
2019-09-02 18:00:00 34.6 23 Sur 32 Sur 0 -- -- 25
2019-09-02 17:00:00 34.3 12 Sudoeste 42 Sudoeste 0 -- -- 25
2019-09-02 16:00:00 33.4 21 Sur 33 Sur 0 -- -- 26
2019-09-02 15:00:00 33.8 15 Sur 35 Sur 0 -- -- 26
2019-09-02 14:00:00 33.1 16 Sudeste 30 Sudoeste 0 -- -- 28
2019-09-02 13:00:00 31.5 11 Sur 24 Sudoeste 0 -- -- 31
2019-09-02 12:00:00 30.2 7 Sudeste 18 Sudeste 0 -- -- 34
2019-09-02 11:00:00 28.9 8 Sur 13 Sudoeste 0 -- -- 38
2019-09-02 10:00:00 27.2 8 Sudeste 17 Sudeste 0 -- -- 38
2019-09-02 09:00:00 25.4 14 Sudeste 17 Sudeste 0 -- -- 37
2019-09-02 08:00:00 23 15 Sudeste 17 Sudeste 0 -- -- 44
2019-09-02 07:00:00 23 8 Sudeste 11 Sudeste 0 -- -- 46
2019-09-02 06:00:00 22.4 8 Sudeste 9 Sudeste 0 -- -- 49
2019-09-02 05:00:00 22.8 4 Sur 9 Sudeste 0 -- -- 49
2019-09-02 04:00:00 22.4 9 Sudeste 10 Sudeste 0 -- -- 51
2019-09-02 03:00:00 23.2 2 Sudoeste 9 Oeste 0 -- -- 50
2019-09-02 02:00:00 24.2 7 Oeste 10 Oeste 0 -- -- 46
2019-09-02 01:00:00 25.1 8 Oeste 10 Oeste 0 -- -- 44
2019-09-02 00:00:00 25.6 8 Sudoeste 16 Sudoeste 0 -- -- 42
2019-09-01 23:00:00 26.5 8 Sudoeste 15 Sudoeste 0 -- -- 40
2019-09-01 22:00:00 28 13 Sudoeste 28 Sudoeste 0 -- -- 37
2019-09-01 21:00:00 29.7 24 Sudoeste 36 Sudoeste 0 -- -- 34
2019-09-01 20:00:00 31.7 27 Sudoeste 35 Sudoeste 0 -- -- 33
2019-09-01 19:00:00 33.8 22 Sudoeste 42 Sur 0 -- -- 28
2019-09-01 18:00:00 33.7 17 Sudoeste 36 Sudoeste 0 -- -- 27
2019-09-01 17:00:00 34.8 21 Sur 35 Sur 0 -- -- 27
2019-09-01 16:00:00 34.6 22 Sudoeste 39 Sudeste 0 -- -- 26
2019-09-01 15:00:00 34 17 Sur 32 Sur 0 -- -- 27
2019-09-01 14:00:00 33.3 10 Sur 44 Sudoeste 0 -- -- 29
2019-09-01 13:00:00 32.2 13 Sudeste 29 Sudeste 0 -- -- 29
2019-09-01 12:00:00 30.9 14 Este 22 Este 0 -- -- 32
2019-09-01 11:00:00 29.1 7 Este 14 Este 0 -- -- 34
2019-09-01 10:00:00 26.2 8 Sudeste 9 Sudeste 0 -- -- 42
2019-09-01 09:00:00 23 7 Sudeste 8 Sudeste 0 -- -- 51
2019-09-01 08:00:00 21.6 3 Sur 5 Sur 0 -- -- 53
2019-09-01 07:00:00 21.4 4 Sudoeste 6 Oeste 0 -- -- 53
2019-09-01 06:00:00 22.3 0 Calma 6 Sudeste 0 -- -- 51
2019-09-01 05:00:00 22.5 5 Sur 8 Sudoeste 0 -- -- 49
2019-09-01 04:00:00 23.5 3 Sudoeste 8 Norte 0 -- -- 46
2019-09-01 03:00:00 24.1 6 Norte 9 Norte 0 -- -- 47
2019-09-01 02:00:00 24.6 3 Oeste 8 Norte 0 -- -- 44
2019-09-01 01:00:00 25.5 4 Noroeste 10 Noroeste 0 -- -- 40
2019-09-01 00:00:00 26.9 10 Noroeste 19 Sudoeste 0 -- -- 37
2019-08-31 23:00:00 27.8 6 Oeste 13 Noroeste 0 -- -- 31
2019-08-31 22:00:00 29.5 13 Noroeste 33 Noroeste 0 -- -- 30
2019-08-31 21:00:00 31.6 17 Noroeste 26 Noroeste 0 -- -- 28
2019-08-31 20:00:00 32.8 14 Oeste 22 Oeste 0 -- -- 26
2019-08-31 19:00:00 33.3 13 Oeste 29 Oeste 0 -- -- 26
2019-08-31 18:00:00 34.3 13 Noroeste 29 Oeste 0 -- -- 24
2019-08-31 17:00:00 34.3 15 Oeste 25 Sudoeste 0 -- -- 25
2019-08-31 16:00:00 33.4 14 Oeste 24 Oeste 0 -- -- 26
2019-08-31 15:00:00 32.9 13 Oeste 31 Oeste 0 -- -- 27
2019-08-31 14:00:00 32.2 16 Oeste 28 Oeste 0 -- -- 28
2019-08-31 13:00:00 31.6 12 Oeste 24 Oeste 0 -- -- 29
2019-08-31 12:00:00 29.6 11 Oeste 24 Oeste 0 -- -- 33
2019-08-31 11:00:00 27.2 10 Oeste 14 Oeste 0 -- -- 37
2019-08-31 10:00:00 24 5 Noroeste 7 Noroeste 0 -- -- 46
2019-08-31 09:00:00 23.4 3 Sudeste 11 Sudeste 0 -- -- 47
2019-08-31 08:00:00 22.1 8 Sudeste 12 Sudeste 0 -- -- 50
2019-08-31 07:00:00 22.1 9 Sudeste 11 Sudeste 0 -- -- 50
2019-08-31 06:00:00 22.3 8 Sudeste 17 Sudeste 0 -- -- 49
2019-08-31 05:00:00 22.8 15 Sudeste 23 Este 0 -- -- 47
2019-08-31 04:00:00 23.7 17 Este 22 Este 0 -- -- 42
2019-08-31 03:00:00 23.5 14 Este 30 Nordeste 0 -- -- 42
2019-08-31 02:00:00 24.6 10 Sudoeste 18 Sudoeste 0 -- -- 39
2019-08-31 01:00:00 25.3 14 Oeste 20 Oeste 0 -- -- 38
2019-08-31 00:00:00 26.5 8 Sudoeste 13 Sudoeste 0 -- -- 37
2019-08-30 23:00:00 27.5 9 Sudoeste 23 Sudoeste 0 -- -- 35
2019-08-30 22:00:00 29.5 18 Sudoeste 29 Sudoeste 0 -- -- 32
2019-08-30 21:00:00 32.2 12 Sur 24 Sur 0 -- -- 25
2019-08-30 20:00:00 33.2 12 Sudeste 24 Sudeste 0 -- -- 24
2019-08-30 19:00:00 34 17 Sudeste 26 Sur 0 -- -- 23
2019-08-30 18:00:00 35 12 Sudoeste 28 Sudoeste 0 -- -- 22
2019-08-30 17:00:00 34.7 15 Sudeste 31 Sudeste 0 -- -- 23
2019-08-30 16:00:00 34.5 13 Este 49 Oeste 0 -- -- 23
2019-08-30 15:00:00 33.5 9 Nordeste 27 Nordeste 0 -- -- 26
2019-08-30 14:00:00 32.8 9 Este 25 Este 0 -- -- 26
2019-08-30 13:00:00 31.7 12 Este 19 Este 0 -- -- 29
2019-08-30 12:00:00 30.3 8 Este 19 Este 0 -- -- 30
2019-08-30 11:00:00 28.2 11 Este 16 Sudeste 0 -- -- 35
2019-08-30 10:00:00 25.6 4 Este 8 Sudeste 0 -- -- 41
2019-08-30 09:00:00 23.1 4 Este 6 Este 0 -- -- 46
2019-08-30 08:00:00 21.3 0 Calma 9 Sudeste 0 -- -- 50
2019-08-30 07:00:00 21.3 3 Sur 4 Sur 0 -- -- 49
2019-08-30 06:00:00 21.9 0 Calma 4 Sur 0 -- -- 48
2019-08-30 05:00:00 22.1 3 Sur 7 Sur 0 -- -- 47
2019-08-30 04:00:00 22.5 5 Sur 9 Sudoeste 0 -- -- 48
2019-08-30 03:00:00 23.1 9 Sudoeste 12 Sudoeste 0 -- -- 47
2019-08-30 02:00:00 23.4 11 Oeste 15 Oeste 0 -- -- 46
2019-08-30 01:00:00 24 12 Oeste 24 Oeste 0 -- -- 44
2019-08-30 00:00:00 25.1 13 Oeste 24 Oeste 0 -- -- 42
2019-08-29 23:00:00 26.5 10 Sudoeste 31 Sudoeste 0 -- -- 39
2019-08-29 22:00:00 28.1 22 Sudoeste 39 Sur 0 -- -- 36
2019-08-29 21:00:00 30.7 22 Sur 37 Sur 0 -- -- 28
2019-08-29 20:00:00 32.5 15 Sur 23 Sudeste 0 -- -- 25
2019-08-29 19:00:00 33 10 Sudeste 35 Sudeste 0 -- -- 25
2019-08-29 18:00:00 34.2 17 Sudeste 36 Sudeste 0 -- -- 24
2019-08-29 17:00:00 34 17 Sudeste 37 Sudeste 0 -- -- 24
2019-08-29 16:00:00 33.4 10 Este 33 Este 0 -- -- 26
2019-08-29 15:00:00 33.3 13 Sudeste 32 Sudeste 0 -- -- 27
2019-08-29 14:00:00 32.4 10 Este 26 Este 0 -- -- 29
2019-08-29 13:00:00 31.8 10 Este 21 Este 0 -- -- 30
2019-08-29 12:00:00 30.1 6 Este 14 Sudeste 0 -- -- 31
2019-08-29 11:00:00 28.3 6 Nordeste 12 Este 0 -- -- 35
2019-08-29 10:00:00 25.1 6 Sur 9 Sur 0 -- -- 42
2019-08-29 09:00:00 23.2 0 Calma 7 Sudeste 0 -- -- 47
2019-08-29 08:00:00 21.5 5 Sudeste 10 Sudeste 0 -- -- 51
2019-08-29 07:00:00 21.5 9 Sudeste 10 Sudeste 0 -- -- 50
2019-08-29 06:00:00 21.5 0 Calma 8 Oeste 0 -- -- 48
2019-08-29 05:00:00 21.7 4 Oeste 7 Oeste 0 -- -- 44
2019-08-29 04:00:00 21.9 4 Oeste 9 Oeste 0 -- -- 41
2019-08-29 03:00:00 22.8 5 Oeste 8 Oeste 0 -- -- 39
2019-08-29 02:00:00 23.7 4 Sudoeste 9 Noroeste 0 -- -- 37
2019-08-29 01:00:00 25 7 Noroeste 8 Noroeste 0 -- -- 34
2019-08-29 00:00:00 25.7 6 Sudoeste 8 Sudoeste 0 -- -- 32
2019-08-28 23:00:00 26.5 5 Oeste 15 Noroeste 0 -- -- 31
2019-08-28 22:00:00 27.9 14 Noroeste 26 Noroeste 0 -- -- 30
2019-08-28 21:00:00 29.9 18 Noroeste 24 Noroeste 0 -- -- 31
2019-08-28 20:00:00 31.7 13 Noroeste 23 Noroeste 0 -- -- 28
2019-08-28 19:00:00 32.4 9 Noroeste 24 Norte 0 -- -- 28
2019-08-28 18:00:00 32.6 15 Noroeste 31 Noroeste 0 -- -- 28
2019-08-28 17:00:00 32.3 12 Noroeste 35 Noroeste 0 -- -- 29
2019-08-28 16:00:00 31.6 11 Oeste 30 Oeste 0 -- -- 30
2019-08-28 15:00:00 31 13 Noroeste 26 Oeste 0 -- -- 31
2019-08-28 14:00:00 30.2 5 Oeste 28 Oeste 0 -- -- 33
2019-08-28 13:00:00 28.7 8 Noroeste 17 Oeste 0 -- -- 36
2019-08-28 12:00:00 27.7 5 Sudeste 15 Nordeste 0 -- -- 40
2019-08-28 11:00:00 25.2 5 Norte 9 Norte 0 -- -- 48
2019-08-28 10:00:00 22.1 3 Noroeste 5 Oeste 0 -- -- 58
2019-08-28 09:00:00 20.4 0 Calma 3 Oeste 0 -- -- 61
2019-08-28 08:00:00 19.3 3 Oeste 5 Sudoeste 0 -- -- 65
2019-08-28 07:00:00 19.3 3 Sudoeste 6 Sur 0 -- -- 65
2019-08-28 06:00:00 19.4 4 Sudoeste 8 Oeste 0 -- -- 64
2019-08-28 05:00:00 19.4 6 Sudoeste 8 Oeste 0 -- -- 64
2019-08-28 04:00:00 19.9 3 Oeste 6 Sur 0 -- -- 62
2019-08-28 03:00:00 20.1 6 Sur 7 Sur 0 -- -- 60
2019-08-28 02:00:00 21 5 Sudoeste 9 Sur 0 -- -- 57
2019-08-28 01:00:00 22.2 7 Sudoeste 9 Sudoeste 0 -- -- 51
2019-08-28 00:00:00 22.7 5 Sur 8 Oeste 0 -- -- 49
2019-08-27 23:00:00 23.6 7 Noroeste 12 Norte 0 -- -- 45
2019-08-27 22:00:00 24.1 12 Norte 15 Norte 0 -- -- 44
2019-08-27 21:00:00 25.9 13 Norte 20 Noroeste 0 -- -- 41
2019-08-27 20:00:00 27 15 Norte 26 Noroeste 0 -- -- 39
2019-08-27 19:00:00 28.4 18 Noroeste 31 Oeste 0 -- -- 37
2019-08-27 18:00:00 29 19 Noroeste 27 Noroeste 0 -- -- 36
2019-08-27 17:00:00 28.5 14 Noroeste 30 Oeste 0 -- -- 38
2019-08-27 16:00:00 28 11 Noroeste 27 Oeste 0 -- -- 37
2019-08-27 15:00:00 27.7 8 Noroeste 24 Oeste 0 -- -- 37
2019-08-27 14:00:00 26.7 6 Sur 21 Noroeste 0 -- -- 42
2019-08-27 13:00:00 25.1 10 Oeste 18 Noroeste 0 -- -- 45
2019-08-27 12:00:00 23.4 6 Oeste 13 Oeste 0 -- -- 54
2019-08-27 11:00:00 21.7 4 Sudoeste 9 Sudoeste 0 -- -- 63
2019-08-27 10:00:00 19.9 5 Sudeste 12 Sudeste 0 -- -- 64
2019-08-27 09:00:00 17 9 Sudeste 13 Sudeste 0 -- -- 77
2019-08-27 08:00:00 16.3 6 Sudeste 7 Sudeste 0 -- -- 76
2019-08-27 07:00:00 15.9 2 Oeste 16 Este 0 -- -- 82
2019-08-27 06:00:00 17.8 12 Este 20 Este 0 -- -- 71
2019-08-27 05:00:00 17.3 7 Este 17 Sudeste 0 -- -- 75
2019-08-27 04:00:00 17.8 10 Sudeste 19 Sudeste 0 -- -- 75
2019-08-27 03:00:00 18.2 12 Sudeste 17 Sudeste 0 -- -- 78
2019-08-27 02:00:00 18.4 13 Sudeste 17 Sudeste 0 -- -- 75
2019-08-27 01:00:00 18.7 14 Sudeste 17 Sudeste 0 -- -- 76
2019-08-27 00:00:00 18.9 5 Sudeste 13 Sudeste 0 -- -- 75
2019-08-26 23:00:00 19.4 2 Noroeste 9 Oeste 0 -- -- 72
2019-08-26 22:00:00 19.8 6 Oeste 17 Oeste 0 -- -- 76
2019-08-26 21:00:00 20.7 11 Oeste 21 Oeste 0 -- -- 68
2019-08-26 20:00:00 22.4 17 Oeste 23 Oeste 0 -- -- 56
2019-08-26 19:00:00 22.4 16 Norte 22 Norte 0 -- -- 49
2019-08-26 18:00:00 19 9 Sudeste 29 Noroeste 0.8 -- -- 72
2019-08-26 17:00:00 18.1 24 Oeste 49 Oeste 1.2 -- -- 71
2019-08-26 16:00:00 24.1 28 Oeste 42 Oeste 0 -- -- 49
2019-08-26 15:00:00 28.3 14 Sur 35 Sur 0 -- -- 38
2019-08-26 14:00:00 27.4 14 Este 30 Sudeste 0 -- -- 40
2019-08-26 13:00:00 25.2 13 Este 27 Este 0 -- -- 48
2019-08-26 12:00:00 23 13 Nordeste 20 Nordeste 0 -- -- 56
2019-08-26 11:00:00 21.6 8 Nordeste 14 Norte 0 -- -- 62
2019-08-26 10:00:00 21 6 Noroeste 13 Oeste 0 -- -- 65
2019-08-26 09:00:00 19.6 2 Sudoeste 16 Sudeste 0 -- -- 65
2019-08-26 08:00:00 19.2 8 Sudeste 10 Sudeste 0 -- -- 65
2019-08-26 07:00:00 19.4 6 Sudeste 10 Sudoeste 0 -- -- 63
2019-08-26 06:00:00 19.6 10 Sudoeste 12 Sudoeste 0 -- -- 60
2019-08-26 05:00:00 20.8 5 Sudoeste 7 Oeste 0 -- -- 52
2019-08-26 04:00:00 21.6 7 Noroeste 12 Sudoeste 0 -- -- 50
2019-08-26 03:00:00 21.7 8 Sudoeste 16 Oeste 0 -- -- 50
2019-08-26 02:00:00 22.8 14 Oeste 32 Sudoeste 0 -- -- 50
2019-08-26 01:00:00 23.3 22 Sudoeste 32 Sudoeste 0 -- -- 52
2019-08-26 00:00:00 24 21 Sudoeste 27 Sudoeste 0 -- -- 50
2019-08-25 23:00:00 25.2 21 Sudoeste 31 Sudoeste 0 -- -- 45
2019-08-25 22:00:00 26.9 22 Sudoeste 31 Sudoeste 0 -- -- 36
2019-08-25 21:00:00 28.7 19 Oeste 25 Oeste 0 -- -- 32
2019-08-25 20:00:00 31 8 Sudoeste 23 Sudoeste 0 -- -- 28
2019-08-25 19:00:00 32.3 13 Sur 26 Este 0 -- -- 27
2019-08-25 18:00:00 32 12 Sudeste 29 Sudeste 0 -- -- 24
2019-08-25 17:00:00 32.7 12 Sudeste 30 Sur 0 -- -- 23
2019-08-25 16:00:00 32.9 19 Sudeste 35 Sudeste 0 -- -- 22
2019-08-25 15:00:00 32.9 21 Sudeste 34 Sudeste 0 -- -- 24
2019-08-25 14:00:00 31.7 11 Sur 28 Sudoeste 0 -- -- 29
2019-08-25 13:00:00 29.9 6 Noroeste 19 Oeste 0 -- -- 34
2019-08-25 12:00:00 28.7 10 Oeste 19 Oeste 0 -- -- 36
2019-08-25 11:00:00 26.3 4 Oeste 12 Oeste 0 -- -- 41
2019-08-25 10:00:00 25.1 2 Este 7 Sudoeste 0 -- -- 44
2019-08-25 09:00:00 22.3 3 Sudeste 10 Sudeste 0 -- -- 51
2019-08-25 08:00:00 20.2 10 Sudeste 15 Sudeste 0 -- -- 57
2019-08-25 07:00:00 20.1 15 Sudeste 21 Sudeste 0 -- -- 56
2019-08-25 06:00:00 21.1 13 Este 18 Sudeste 0 -- -- 53
2019-08-25 05:00:00 22.1 10 Este 16 Este 0 -- -- 50
2019-08-25 04:00:00 22.6 10 Sudoeste 17 Sudoeste 0 -- -- 50
2019-08-25 03:00:00 23.4 11 Sudoeste 19 Sudoeste 0 -- -- 49
2019-08-25 02:00:00 24.4 14 Sudoeste 24 Sudoeste 0 -- -- 46
2019-08-25 01:00:00 25.7 16 Sudoeste 24 Sudoeste 0 -- -- 43
2019-08-25 00:00:00 26.8 18 Sudoeste 26 Sur 0 -- -- 38
2019-08-24 23:00:00 27.9 17 Sudoeste 25 Sudoeste 0 -- -- 35
2019-08-24 22:00:00 29.5 16 Sudoeste 25 Sudoeste 0 -- -- 32
2019-08-24 21:00:00 32.2 18 Sudoeste 22 Sudoeste 0 -- -- 25
2019-08-24 20:00:00 34 6 Noroeste 18 Oeste 0 -- -- 21
2019-08-24 19:00:00 34.6 9 Noroeste 18 Nordeste 0 -- -- 20
2019-08-24 18:00:00 34.9 8 Norte 23 Nordeste 0 -- -- 20
2019-08-24 17:00:00 34.6 12 Este 45 Este 0 -- -- 21
2019-08-24 16:00:00 34.5 10 Sudeste 23 Sudeste 0 -- -- 21
2019-08-24 15:00:00 33.7 10 Sur 27 Sudeste 0 -- -- 24
2019-08-24 14:00:00 32.8 12 Sur 23 Sur 0 -- -- 26
2019-08-24 13:00:00 31.3 15 Sur 28 Sudeste 0 -- -- 29
2019-08-24 12:00:00 30.1 17 Sudeste 27 Sudeste 0 -- -- 31
2019-08-24 11:00:00 27.8 21 Este 29 Este 0 -- -- 40
2019-08-24 10:00:00 23.8 21 Este 30 Este 0 -- -- 50
2019-08-24 09:00:00 21.3 23 Este 33 Este 0 -- -- 57
2019-08-24 08:00:00 20.7 22 Este 32 Este 0 -- -- 57
2019-08-24 07:00:00 21.1 21 Este 27 Este 0 -- -- 54
2019-08-24 06:00:00 20.8 21 Este 27 Este 0 -- -- 52
2019-08-24 05:00:00 21.7 23 Sudeste 29 Este 0 -- -- 47
2019-08-24 04:00:00 23.3 14 Este 19 Este 0 -- -- 39
2019-08-24 03:00:00 24.9 15 Este 18 Este 0 -- -- 35
2019-08-24 02:00:00 24.7 2 Nordeste 18 Sudeste 0 -- -- 35
2019-08-24 01:00:00 27 17 Sudeste 19 Sudeste 0 -- -- 32
2019-08-24 00:00:00 27.1 10 Sudeste 12 Sur 0 -- -- 31
2019-08-23 23:00:00 28.4 9 Sudeste 15 Sudeste 0 -- -- 31
2019-08-23 22:00:00 29.6 14 Sudoeste 21 Sudeste 0 -- -- 29
2019-08-23 21:00:00 32.4 5 Sur 12 Sur 0 -- -- 25
2019-08-23 20:00:00 33.3 8 Oeste 17 Sudoeste 0 -- -- 24
2019-08-23 19:00:00 33.7 13 Sur 31 Este 0 -- -- 24
2019-08-23 18:00:00 34 11 Este 28 Este 0 -- -- 24
2019-08-23 17:00:00 34.3 15 Sudeste 38 Sudeste 0 -- -- 23
2019-08-23 16:00:00 33.6 17 Sudeste 37 Sudeste 0 -- -- 26
2019-08-23 15:00:00 32.8 19 Este 35 Este 0 -- -- 27
2019-08-23 14:00:00 31.2 21 Sudeste 37 Sudeste 0 -- -- 31
2019-08-23 13:00:00 30.2 25 Sudeste 54 Este 0 -- -- 33
2019-08-23 12:00:00 28.6 34 Este 48 Este 0 -- -- 35
2019-08-23 11:00:00 27.1 36 Sudeste 45 Este 0 -- -- 43
2019-08-23 10:00:00 25 34 Sudeste 45 Sudeste 0 -- -- 50
2019-08-23 09:00:00 21.8 10 Sudeste 21 Este 0 -- -- 55
2019-08-23 08:00:00 20.2 9 Este 16 Sur 0 -- -- 61
2019-08-23 07:00:00 21.7 19 Sudeste 33 Este 0 -- -- 55
2019-08-23 06:00:00 21.1 16 Sudeste 24 Sudeste 0 -- -- 63
2019-08-23 05:00:00 21.4 17 Este 23 Este 0 -- -- 64
2019-08-23 04:00:00 22 15 Sudeste 19 Sudeste 0 -- -- 61
2019-08-23 03:00:00 23.4 16 Sudeste 20 Este 0 -- -- 56
2019-08-23 02:00:00 24.1 6 Sudoeste 12 Sudoeste 0 -- -- 52
2019-08-23 01:00:00 25 3 Sudeste 10 Este 0 -- -- 48
2019-08-23 00:00:00 25.7 6 Nordeste 13 Sur 0 -- -- 45
2019-08-22 23:00:00 27.2 13 Sudeste 23 Sudeste 0 -- -- 40
2019-08-22 22:00:00 28.4 20 Sudeste 25 Sudeste 0 -- -- 40
2019-08-22 21:00:00 30.2 22 Sur 27 Sudeste 0 -- -- 38
2019-08-22 20:00:00 31.7 14 Sudeste 21 Nordeste 0 -- -- 32
2019-08-22 19:00:00 32.5 13 Nordeste 27 Nordeste 0 -- -- 31
2019-08-22 18:00:00 33.8 20 Nordeste 31 Nordeste 0 -- -- 27
2019-08-22 17:00:00 34.3 22 Nordeste 36 Nordeste 0 -- -- 27
2019-08-22 16:00:00 32.2 16 Este 38 Este 0 -- -- 30
2019-08-22 15:00:00 31.7 20 Nordeste 36 Este 0 -- -- 30
2019-08-22 14:00:00 32.2 19 Nordeste 35 Este 0 -- -- 34
2019-08-22 13:00:00 30.1 10 Nordeste 27 Este 0 -- -- 44
2019-08-22 12:00:00 28.6 15 Este 24 Este 0 -- -- 47
2019-08-22 11:00:00 26.4 9 Este 17 Este 0 -- -- 51
2019-08-22 10:00:00 24.3 10 Sudeste 19 Este 0 -- -- 53
2019-08-22 09:00:00 20.9 16 Este 24 Este 0 -- -- 67
2019-08-22 08:00:00 19.8 18 Este 24 Este 0 -- -- 72
2019-08-22 07:00:00 20.5 15 Sudeste 23 Sudeste 0 -- -- 68
2019-08-22 06:00:00 21 16 Este 22 Este 0 -- -- 58
2019-08-22 05:00:00 22.4 9 Este 22 Este 0 -- -- 44
2019-08-22 04:00:00 21.7 4 Sur 9 Noroeste 0 -- -- 46
2019-08-22 03:00:00 22.2 9 Noroeste 12 Oeste 0 -- -- 35
2019-08-22 02:00:00 23.1 6 Oeste 10 Nordeste 0 -- -- 31
2019-08-22 01:00:00 25.5 4 Nordeste 6 Sur 0 -- -- 27
2019-08-22 00:00:00 25 5 Sudeste 13 Nordeste 0 -- -- 27
2019-08-21 23:00:00 25.8 11 Nordeste 18 Norte 0 -- -- 28
2019-08-21 22:00:00 27.5 14 Norte 20 Norte 0 -- -- 27
2019-08-21 21:00:00 30 18 Norte 28 Norte 0 -- -- 25
2019-08-21 20:00:00 32.1 15 Noroeste 21 Noroeste 0 -- -- 23
2019-08-21 19:00:00 32.5 9 Norte 27 Norte 0 -- -- 23
2019-08-21 18:00:00 32.9 14 Norte 28 Norte 0 -- -- 22
2019-08-21 17:00:00 33 15 Norte 28 Noroeste 0 -- -- 23
2019-08-21 16:00:00 32.4 14 Norte 28 Oeste 0 -- -- 24
2019-08-21 15:00:00 31.2 8 Norte 26 Oeste 0 -- -- 26
2019-08-21 14:00:00 31.3 9 Sudoeste 18 Sudoeste 0 -- -- 27
2019-08-21 13:00:00 29.4 12 Oeste 21 Oeste 0 -- -- 29
2019-08-21 12:00:00 28.5 5 Sur 16 Oeste 0 -- -- 29
2019-08-21 11:00:00 26.2 5 Noroeste 10 Oeste 0 -- -- 33
2019-08-21 10:00:00 24.2 5 Sudeste 12 Sudeste 0 -- -- 34
2019-08-21 09:00:00 21.3 10 Sudeste 15 Sudeste 0 -- -- 32
2019-08-21 08:00:00 20 14 Sudeste 23 Este 0 -- -- 36
2019-08-21 07:00:00 18.6 15 Este 24 Este 0 -- -- 39
2019-08-21 06:00:00 20.1 17 Este 23 Este 0 -- -- 35
2019-08-21 05:00:00 20 13 Este 24 Este 0 -- -- 31
2019-08-21 04:00:00 23 18 Sudeste 20 Sudeste 0 -- -- 28
2019-08-21 03:00:00 24.2 4 Este 6 Este 0 -- -- 27
2019-08-21 02:00:00 24.2 -- -- -- -- 0 -- -- 27
2019-08-21 01:00:00 24.9 3 Sur 15 Sudeste 0 -- -- 26
2019-08-21 00:00:00 23.7 13 Sudeste 18 Sudeste 0 -- -- 26